NCAR-RAP Real-Time Weather Data

Output produced by METARs form (23 June 2018  19:26 UTC)
found at http://weather.rap.ucar.edu/surface/
 
RJCH 231100Z 25007KT 220V300 9999 FEW020 SCT050 BKN130 18/12 Q1000
RJCH 231000Z 23004KT 170V270 9999 FEW020 SCT060 BKN150 18/13 Q1000
RJCH 230900Z 20005KT 160V240 9999 FEW020 SCT060 BKN/// 17/13 Q1000
RJCH 230819Z 17005KT 120V240 9999 FEW020 SCT060 BKN/// 17/13 Q1000 RMK 1CU020 3CU060 A2956
RJCH 230800Z 23011KT 9999 FEW020 SCT060 BKN/// 18/13 Q1000
RJCH 230700Z 23012KT CAVOK 18/13 Q1000
RJCH 230600Z 18008KT 9999 FEW045 BKN/// 21/12 Q1001
RJCH 230500Z 23009KT 170V250 9999 FEW045 BKN/// 22/12 Q1001
RJCH 230400Z 26011KT 9999 FEW045 BKN/// 24/14 Q1002
RJCH 230300Z 25010KT 210V290 9999 FEW045 BKN/// 24/15 Q1002
RJCH 230200Z 25007KT 210V270 9999 FEW040 SCT/// 21/15 Q1003
RJCH 230100Z 23012KT 9999 FEW030 SCT/// 19/15 Q1004
RJCH 230000Z 21010KT 9999 FEW020 18/15 Q1004
RJCH 222300Z 21009KT 170V240 9999 FEW025 17/15 Q1004
RJCH 222200Z 17005KT 140V200 9999 FEW025 17/14 Q1004
RJCH 222110Z 34003KT 300V010 9999 FEW020 17/14 Q1004 RMK 1CU020 A2966
RJCH 221100Z 25010KT 9999 FEW030 15/13 Q1003
RJCH 221000Z VRB06KT 9999 FEW030 16/13 Q1002
RJCH 220900Z 21009KT 9999 FEW030 16/13 Q1002
RJCH 220800Z 24008KT 200V310 9999 FEW025 SCT050 16/14 Q1002
RJCH 220700Z 24012KT 9999 FEW025 SCT050 BKN/// 16/14 Q1001
RJCH 220600Z 24013KT 9999 FEW025 SCT040 BKN/// 16/14 Q1001
RJCH 220500Z 23015KT 9999 FEW025 SCT040 BKN070 17/14 Q1001
RJCH 220400Z 24012KT 9999 FEW025 SCT040 BKN050 16/14 Q1001
RJCH 220300Z 23010KT 9999 FEW025 SCT040 BKN050 15/13 Q1001
RJCH 220200Z 23010KT 190V260 9999 FEW025 SCT030 BKN050 16/14 Q1001
RJCH 220100Z 24010KT 9999 FEW020 SCT025 BKN040 16/13 Q1002
RJCH 220000Z 24010KT 9999 FEW015 SCT025 BKN060 16/13 Q1001
RJCH 212300Z 24006KT 9999 FEW012 SCT020 BKN025 15/13 Q1002
RJCH 212200Z 23009KT 9999 FEW012 SCT015 BKN020 15/13 Q1001
RJCH 212110Z 23006KT 9999 FEW008 BKN015 BKN020 14/13 Q1001 RMK 1ST008 5ST015 6CU020 A2958
RJCH 211100Z 25009KT 9999 FEW006 SCT015 BKN025 14/13 Q1000
RJCH 211000Z VRB01KT 9999 FEW006 SCT012 15/14 Q0999
RJCH 210917Z VRB02KT 9999 FEW006 SCT015 BKN025 16/15 Q0999 RMK 2ST006 4ST015 5CU025 A2951
RJCH 210900Z VRB01KT 6000 BCFG FEW001 SCT004 BKN006 15/15 Q0999
RJCH 210830Z 14003KT 110V210 3200 BCFG BR FEW001 BKN003 BKN004 15/15 Q0999 RMK 2ST001 5ST003 7ST004 A2951
RJCH 210800Z 13004KT 3000 BCFG BR FEW001 BKN002 BKN003 15/15 Q0999